Time;durP1;ratioP1;P1;durP2;ratioP2;P2;SDS_P1;SDS_P2;PMS_P1;PMS_P2;Temp;Humidity;BMP_temperature;BMP_pressure;BME280_temperature;BME280_humidity;BME280_pressure;Samples;Min_cycle;Max_cycle;Signal;HPM_P1;HPM_P2
2022/10/12 00:01:07;;;;;;;7.88;4.45;;;;;;;-145.49;100.00;62790.56;4973487;28;20043;-73
2022/10/12 00:03:36;;;;;;;15.90;4.13;;;;;;;-145.49;100.00;62790.56;4971520;28;20053;-72
2022/10/12 00:06:14;;;;;;;6.57;5.82;;;;;;;-145.49;100.00;62790.56;4986642;28;20050;-72
2022/10/12 00:08:44;;;;;;;4.78;4.13;;;;;;;-145.49;100.00;62790.56;4972878;28;20039;-73
2022/10/12 00:11:26;;;;;;;8.95;5.28;;;;;;;-145.49;100.00;62790.56;4971254;28;20049;-72
2022/10/12 00:13:52;;;;;;;5.40;3.33;;;;;;;-145.49;100.00;62790.56;4970531;28;20047;-73
2022/10/12 00:16:22;;;;;;;6.28;3.97;;;;;;;-145.49;100.00;62790.56;4971842;28;20042;-74
2022/10/12 00:18:55;;;;;;;7.05;4.00;;;;;;;-145.49;100.00;62790.56;4956701;28;20035;-73
2022/10/12 00:21:26;;;;;;;6.13;4.93;;;;;;;-145.49;100.00;62790.56;4987924;28;20039;-74
2022/10/12 00:23:55;;;;;;;4.85;3.58;;;;;;;-145.49;100.00;62790.56;4972283;28;20042;-74
2022/10/12 00:26:22;;;;;;;7.95;5.13;;;;;;;-145.49;100.00;62790.56;4970515;28;20401;-72
2022/10/12 00:28:56;;;;;;;5.68;4.07;;;;;;;-145.49;100.00;62790.56;4988372;28;20054;-73
2022/10/12 00:31:23;;;;;;;5.10;3.83;;;;;;;-145.49;100.00;62790.56;4971333;28;20061;-73
2022/10/12 00:33:49;;;;;;;9.73;5.40;;;;;;;-145.49;100.00;62790.56;4971465;28;20540;-74
2022/10/12 00:36:34;;;;;;;6.53;4.25;;;;;;;-145.49;100.00;62790.56;4985429;28;20050;-73
2022/10/12 00:39:03;;;;;;;6.70;3.83;;;;;;;-145.49;100.00;62790.56;4966837;28;20409;-73
2022/10/12 00:41:42;;;;;;;4.95;4.47;;;;;;;-145.49;100.00;62790.56;4970081;28;20039;-74
2022/10/12 00:44:36;;;;;;;4.63;3.20;;;;;;;-145.49;100.00;62790.56;4979660;28;20033;-73
2022/10/12 00:47:09;;;;;;;4.88;3.65;;;;;;;-145.49;100.00;62790.56;4970345;28;20050;-73
2022/10/12 00:49:37;;;;;;;5.93;3.70;;;;;;;-145.49;100.00;62790.56;4963821;28;20047;-73
2022/10/12 00:52:13;;;;;;;12.55;4.47;;;;;;;-145.49;100.00;62790.56;4972664;28;20035;-73
2022/10/12 00:54:49;;;;;;;7.60;4.45;;;;;;;-145.49;100.00;62790.56;4953931;28;20049;-73
2022/10/12 00:57:18;;;;;;;6.20;3.92;;;;;;;-145.49;100.00;62790.56;4984211;28;20042;-72
2022/10/12 00:59:57;;;;;;;8.25;4.10;;;;;;;-145.49;100.00;62790.56;4972098;28;20035;-72
2022/10/12 01:02:28;;;;;;;6.82;5.80;;;;;;;-145.49;100.00;62790.56;4972202;28;20496;-72
2022/10/12 01:04:57;;;;;;;8.32;4.43;;;;;;;-145.49;100.00;62790.56;4970816;28;20035;-72
2022/10/12 01:07:26;;;;;;;15.20;6.22;;;;;;;-145.49;100.00;62790.56;4985010;28;20042;-72
2022/10/12 01:09:52;;;;;;;7.55;3.60;;;;;;;-145.49;100.00;62790.56;4986066;28;20043;-72
2022/10/12 01:12:19;;;;;;;5.38;3.22;;;;;;;-145.49;100.00;62790.56;4969691;28;20511;-73
2022/10/12 01:14:50;;;;;;;6.85;4.78;;;;;;;-145.49;100.00;62790.56;4970438;28;20062;-72
2022/10/12 01:17:28;;;;;;;16.85;5.07;;;;;;;-145.49;100.00;62790.56;4972666;28;20050;-72
2022/10/12 01:20:22;;;;;;;6.15;4.32;;;;;;;-145.49;100.00;62790.56;4968828;28;20034;-72
2022/10/12 01:23:24;;;;;;;5.60;4.00;;;;;;;-145.49;100.00;62790.56;4970639;28;20045;-72
2022/10/12 01:26:08;;;;;;;14.40;6.53;;;;;;;-145.49;100.00;62790.56;4968646;28;20054;-73
2022/10/12 01:29:02;;;;;;;12.80;4.15;;;;;;;-145.49;100.00;62790.56;4969538;28;20039;-73
2022/10/12 01:31:48;;;;;;;9.02;4.35;;;;;;;-145.49;100.00;62790.56;4970663;28;20370;-73
2022/10/12 01:34:39;;;;;;;7.10;4.30;;;;;;;-145.49;100.00;62790.56;4986841;28;20551;-72
2022/10/12 01:37:17;;;;;;;8.50;5.50;;;;;;;-145.49;100.00;62790.56;4983100;28;20050;-72
2022/10/12 01:39:55;;;;;;;7.28;4.85;;;;;;;-145.49;100.00;62790.56;4985166;28;20416;-72
2022/10/12 01:42:37;;;;;;;6.95;3.67;;;;;;;-145.49;100.00;62790.56;4966407;28;20042;-72
2022/10/12 01:45:09;;;;;;;9.75;5.13;;;;;;;-145.49;100.00;62790.56;4969276;28;20027;-73
2022/10/12 01:47:40;;;;;;;8.05;4.65;;;;;;;-145.49;100.00;62790.56;4970488;28;20035;-73
2022/10/12 01:50:14;;;;;;;13.73;4.63;;;;;;;-145.49;100.00;62790.56;4969861;28;20066;-73
2022/10/12 01:53:06;;;;;;;9.68;4.15;;;;;;;-145.49;100.00;62790.56;4971156;28;20508;-73
2022/10/12 01:55:54;;;;;;;5.97;3.17;;;;;;;-145.49;100.00;62790.56;4970066;28;20046;-72
2022/10/12 01:58:32;;;;;;;8.02;4.70;;;;;;;-145.49;100.00;62790.56;4983102;28;20042;-73
2022/10/12 02:01:19;;;;;;;6.90;4.88;;;;;;;-145.49;100.00;62790.56;4967305;28;20387;-72
2022/10/12 02:04:03;;;;;;;6.97;4.32;;;;;;;-145.49;100.00;62790.56;4973734;28;20039;-73
2022/10/12 02:06:42;;;;;;;5.82;3.47;;;;;;;-145.49;100.00;62790.56;4986381;28;20054;-73
2022/10/12 02:09:18;;;;;;;5.93;3.88;;;;;;;-145.49;100.00;62790.56;4974218;28;20038;-73
2022/10/12 02:11:47;;;;;;;5.97;3.67;;;;;;;-145.49;100.00;62790.56;4970846;28;20370;-73
2022/10/12 02:14:17;;;;;;;7.57;4.65;;;;;;;-145.49;100.00;62790.56;4974073;28;20054;-73
2022/10/12 02:16:59;;;;;;;6.32;3.75;;;;;;;-145.49;100.00;62790.56;4970913;28;20026;-73
2022/10/12 02:19:29;;;;;;;5.43;3.65;;;;;;;-145.49;100.00;62790.56;4974682;28;20070;-72
2022/10/12 02:22:01;;;;;;;6.90;3.63;;;;;;;-145.49;100.00;62790.56;4967243;28;20038;-73
2022/10/12 02:24:34;;;;;;;6.55;3.88;;;;;;;-145.49;100.00;62790.56;4975217;28;20035;-73
2022/10/12 02:27:06;;;;;;;6.25;3.58;;;;;;;-145.49;100.00;62790.56;4971510;28;20043;-74
2022/10/12 02:29:38;;;;;;;8.20;4.18;;;;;;;-145.49;100.00;62790.56;4967171;28;20050;-73
2022/10/12 02:32:20;;;;;;;5.72;4.55;;;;;;;-145.49;100.00;62790.56;4970635;28;20035;-73
2022/10/12 02:34:54;;;;;;;5.28;3.97;;;;;;;-145.49;100.00;62790.56;4974946;28;20065;-72
2022/10/12 02:37:26;;;;;;;9.15;4.50;;;;;;;-145.49;100.00;62790.56;4957518;28;20047;-73
2022/10/12 02:40:08;;;;;;;7.90;4.43;;;;;;;-145.49;100.00;62790.56;4966769;28;20623;-73
2022/10/12 02:42:47;;;;;;;5.22;3.88;;;;;;;-145.49;100.00;62790.56;4969670;28;20042;-73
2022/10/12 02:45:15;;;;;;;6.75;3.83;;;;;;;-145.49;100.00;62790.56;4970872;28;20051;-73
2022/10/12 02:47:49;;;;;;;8.60;4.95;;;;;;;-145.49;100.00;62790.56;4968787;28;20386;-72
2022/10/12 02:50:23;;;;;;;6.07;3.05;;;;;;;-145.49;100.00;62790.56;4973423;28;20397;-71
2022/10/12 02:52:50;;;;;;;4.63;3.47;;;;;;;-145.49;100.00;62790.56;4972421;28;21206;-73
2022/10/12 02:55:18;;;;;;;5.13;3.75;;;;;;;-145.49;100.00;62790.56;4972650;28;20113;-73
2022/10/12 02:57:53;;;;;;;6.65;3.45;;;;;;;-145.49;100.00;62790.56;4975220;28;20050;-72
2022/10/12 03:00:24;;;;;;;10.88;3.08;;;;;;;-145.49;100.00;62790.56;4974357;28;20481;-72
2022/10/12 03:02:50;;;;;;;6.25;3.58;;;;;;;-145.49;100.00;62790.56;4970139;28;20046;-73
2022/10/12 03:05:18;;;;;;;4.68;2.80;;;;;;;-145.49;100.00;62790.56;4985223;28;20031;-73
2022/10/12 03:07:49;;;;;;;6.63;3.55;;;;;;;-145.49;100.00;62790.56;4987185;28;20043;-73
2022/10/12 03:10:15;;;;;;;4.00;3.13;;;;;;;-145.49;100.00;62790.56;4972157;28;20039;-72
2022/10/12 03:12:42;;;;;;;5.97;3.45;;;;;;;-145.49;100.00;62790.56;4972446;28;20039;-72
2022/10/12 03:15:13;;;;;;;6.43;2.58;;;;;;;-145.49;100.00;62790.56;4969960;28;20035;-73
2022/10/12 03:17:39;;;;;;;5.20;3.30;;;;;;;-145.49;100.00;62790.56;4972532;28;20039;-72
2022/10/12 03:20:07;;;;;;;4.50;3.15;;;;;;;-145.49;100.00;62790.56;4988901;28;20034;-72
2022/10/12 03:22:36;;;;;;;6.82;3.30;;;;;;;-145.49;100.00;62790.56;4971737;28;20031;-73
2022/10/12 03:25:04;;;;;;;5.15;3.75;;;;;;;-145.49;100.00;62790.56;4955474;28;20030;-72
2022/10/12 03:27:36;;;;;;;5.88;3.58;;;;;;;-145.49;100.00;62790.56;4973247;28;20050;-72
2022/10/12 03:30:10;;;;;;;5.03;3.33;;;;;;;-145.49;100.00;62790.56;4989654;28;20516;-72
2022/10/12 03:32:37;;;;;;;6.57;3.55;;;;;;;-145.49;100.00;62790.56;4967271;28;20074;-73
2022/10/12 03:35:03;;;;;;;4.03;3.10;;;;;;;-145.49;100.00;62790.56;4956051;28;20046;-71
2022/10/12 03:37:35;;;;;;;5.20;4.05;;;;;;;-145.49;100.00;62790.56;4989060;28;20487;-72
2022/10/12 03:40:01;;;;;;;5.85;3.15;;;;;;;-145.49;100.00;62790.56;4970843;28;20043;-73
2022/10/12 03:42:29;;;;;;;3.92;3.05;;;;;;;-145.49;100.00;62790.56;4969125;28;20049;-73
2022/10/12 03:44:56;;;;;;;8.73;3.88;;;;;;;-145.49;100.00;62790.56;4971784;28;20086;-73
2022/10/12 03:47:26;;;;;;;9.27;4.00;;;;;;;-145.49;100.00;62790.56;4952627;28;20043;-73
2022/10/12 03:49:57;;;;;;;6.32;2.95;;;;;;;-145.49;100.00;62790.56;4984525;28;20038;-73
2022/10/12 03:52:28;;;;;;;8.45;3.95;;;;;;;-145.49;100.00;62790.56;4971580;28;20035;-73
2022/10/12 03:54:56;;;;;;;4.47;3.60;;;;;;;-145.49;100.00;62790.56;4955738;28;20481;-73
2022/10/12 03:57:25;;;;;;;5.18;3.40;;;;;;;-145.49;100.00;62790.56;4965669;28;20050;-72
2022/10/12 03:59:56;;;;;;;6.25;3.45;;;;;;;-145.49;100.00;62790.56;4987280;28;20042;-73
2022/10/12 04:02:24;;;;;;;4.15;2.88;;;;;;;-145.49;100.00;62790.56;4970633;28;20039;-73
2022/10/12 04:04:53;;;;;;;3.85;3.33;;;;;;;-145.49;100.00;62790.56;4964923;28;20508;-73
2022/10/12 04:07:21;;;;;;;7.03;3.08;;;;;;;-145.49;100.00;62790.56;4971753;28;20035;-74
2022/10/12 04:09:52;;;;;;;12.90;2.97;;;;;;;-145.49;100.00;62790.56;4973834;28;20039;-74
2022/10/12 04:12:23;;;;;;;7.95;3.30;;;;;;;-145.49;100.00;62790.56;4972289;28;20038;-74
2022/10/12 04:14:52;;;;;;;11.50;3.65;;;;;;;-145.49;100.00;62790.56;4988113;28;20049;-73
2022/10/12 04:17:18;;;;;;;5.00;2.85;;;;;;;-145.49;100.00;62790.56;4974991;28;20035;-73
2022/10/12 04:19:46;;;;;;;3.67;3.05;;;;;;;-145.49;100.00;62790.56;4974817;28;20042;-73
2022/10/12 04:22:13;;;;;;;5.43;4.18;;;;;;;-145.49;100.00;62790.56;4977085;28;20039;-74
2022/10/12 04:24:41;;;;;;;4.05;2.75;;;;;;;-145.49;100.00;62790.56;4986739;28;20035;-72
2022/10/12 04:27:10;;;;;;;6.07;3.65;;;;;;;-145.49;100.00;62790.56;4971006;28;20034;-75
2022/10/12 04:29:38;;;;;;;7.15;3.20;;;;;;;-145.49;100.00;62790.56;4973267;28;20065;-74
2022/10/12 04:32:07;;;;;;;5.30;3.45;;;;;;;-145.49;100.00;62790.56;4970917;28;20049;-73
2022/10/12 04:34:34;;;;;;;4.05;3.22;;;;;;;-145.49;100.00;62790.56;4971570;28;20043;-73
2022/10/12 04:37:01;;;;;;;6.70;3.10;;;;;;;-145.49;100.00;62790.56;4978992;28;20042;-72
2022/10/12 04:39:28;;;;;;;8.13;5.07;;;;;;;-145.49;100.00;62790.56;4972393;28;20051;-73
2022/10/12 04:42:01;;;;;;;5.22;4.63;;;;;;;-145.49;100.00;62790.56;4963861;28;20502;-73
2022/10/12 04:44:33;;;;;;;7.63;2.90;;;;;;;-145.49;100.00;62790.56;4971717;28;20481;-74
2022/10/12 04:47:01;;;;;;;6.38;4.00;;;;;;;-145.49;100.00;62790.56;4963264;28;20049;-74
2022/10/12 04:49:27;;;;;;;11.57;3.80;;;;;;;-145.49;100.00;62790.56;4968617;28;20039;-73
2022/10/12 04:51:55;;;;;;;5.90;3.83;;;;;;;-145.49;100.00;62790.56;4970825;28;20397;-73
2022/10/12 04:54:22;;;;;;;8.70;3.78;;;;;;;-145.49;100.00;62790.56;4970886;28;20038;-73
2022/10/12 04:56:48;;;;;;;7.25;3.35;;;;;;;-145.49;100.00;62790.56;4972034;28;20215;-72
2022/10/12 04:59:16;;;;;;;6.90;4.05;;;;;;;-145.49;100.00;62790.56;4985831;28;20039;-73
2022/10/12 05:01:47;;;;;;;6.30;3.55;;;;;;;-145.49;100.00;62790.56;4966946;28;20034;-73
2022/10/12 05:04:16;;;;;;;5.55;3.60;;;;;;;-145.49;100.00;62790.56;4970452;28;20042;-73
2022/10/12 05:06:44;;;;;;;6.63;3.58;;;;;;;-145.49;100.00;62790.56;4970675;28;20053;-74
2022/10/12 05:09:15;;;;;;;6.75;4.07;;;;;;;-145.49;100.00;62790.56;4970682;28;20046;-73
2022/10/12 05:11:41;;;;;;;9.50;4.05;;;;;;;-145.49;100.00;62790.56;4983191;28;20473;-73
2022/10/12 05:14:08;;;;;;;4.20;3.13;;;;;;;-145.49;100.00;62790.56;4961908;28;20053;-73
2022/10/12 05:16:34;;;;;;;7.70;2.75;;;;;;;-145.49;100.00;62790.56;4971057;28;20050;-72
2022/10/12 05:19:00;;;;;;;5.15;3.88;;;;;;;-145.49;100.00;62790.56;4970679;28;20039;-75
2022/10/12 05:21:29;;;;;;;5.88;3.90;;;;;;;-145.49;100.00;62790.56;4985874;28;20039;-74
2022/10/12 05:24:00;;;;;;;5.40;3.28;;;;;;;-145.49;100.00;62790.56;4954649;28;20050;-74
2022/10/12 05:26:26;;;;;;;5.22;3.28;;;;;;;-145.49;100.00;62790.56;4981237;28;20027;-74
2022/10/12 05:28:57;;;;;;;4.03;3.17;;;;;;;-145.49;100.00;62790.56;4986231;28;20433;-74
2022/10/12 05:31:23;;;;;;;6.78;4.10;;;;;;;-145.49;100.00;62790.56;4965040;28;20046;-74
2022/10/12 05:33:56;;;;;;;8.85;4.05;;;;;;;-145.49;100.00;62790.56;4947267;28;20050;-75
2022/10/12 05:36:25;;;;;;;8.10;4.25;;;;;;;-145.49;100.00;62790.56;4977167;28;20042;-74
2022/10/12 05:38:56;;;;;;;8.65;3.80;;;;;;;-145.49;100.00;62790.56;4976380;28;20042;-74
2022/10/12 05:41:24;;;;;;;6.00;3.83;;;;;;;-145.49;100.00;62790.56;5003265;23;20049;-78
2022/10/12 05:43:53;;;;;;;5.25;4.25;;;;;;;-145.49;100.00;62790.56;4998246;28;20042;-78
2022/10/12 05:46:26;;;;;;;3.65;2.83;;;;;;;-145.49;100.00;62790.56;5008223;28;20034;-77
2022/10/12 05:48:57;;;;;;;5.00;4.55;;;;;;;-145.49;100.00;62790.56;4995265;28;20065;-77
2022/10/12 05:51:25;;;;;;;4.80;3.10;;;;;;;-145.49;100.00;62790.56;5001189;28;20041;-77
2022/10/12 05:53:52;;;;;;;7.82;3.42;;;;;;;-145.49;100.00;62790.56;5000320;28;20034;-77
2022/10/12 05:56:18;;;;;;;6.55;4.35;;;;;;;-145.49;100.00;62790.56;4990570;28;20512;-77
2022/10/12 05:58:46;;;;;;;5.07;3.75;;;;;;;-145.49;100.00;62790.56;4992607;28;20042;-78
2022/10/12 06:01:13;;;;;;;10.57;3.72;;;;;;;-145.49;100.00;62790.56;4986456;28;20038;-77
2022/10/12 06:03:42;;;;;;;6.18;2.97;;;;;;;-145.49;100.00;62790.56;5012501;28;20038;-77
2022/10/12 06:06:08;;;;;;;6.15;3.95;;;;;;;-145.49;100.00;62790.56;4996966;28;20026;-77
2022/10/12 06:08:37;;;;;;;7.50;2.92;;;;;;;-145.49;100.00;62790.56;4991358;28;20049;-77
2022/10/12 06:11:03;;;;;;;5.45;4.95;;;;;;;-145.49;100.00;62790.56;4994171;28;20053;-77
2022/10/12 06:13:36;;;;;;;7.30;3.88;;;;;;;-145.49;100.00;62790.56;4994073;28;20052;-77
2022/10/12 06:16:08;;;;;;;6.47;3.63;;;;;;;-145.49;100.00;62790.56;4978335;28;20038;-77
2022/10/12 06:18:37;;;;;;;5.53;3.10;;;;;;;-145.49;100.00;62790.56;4993823;28;20038;-77
2022/10/12 06:21:05;;;;;;;8.68;3.45;;;;;;;-145.49;100.00;62790.56;4994952;28;20038;-77
2022/10/12 06:23:34;;;;;;;7.25;3.72;;;;;;;-145.49;100.00;62790.56;4976602;28;20046;-77
2022/10/12 06:26:02;;;;;;;7.07;3.88;;;;;;;-145.49;100.00;62790.56;4990379;28;20030;-79
2022/10/12 06:28:28;;;;;;;10.32;5.40;;;;;;;-145.49;100.00;62790.56;5000781;28;20050;-77
2022/10/12 06:30:56;;;;;;;6.35;3.55;;;;;;;-145.49;100.00;62790.56;4992615;28;20397;-77
2022/10/12 06:33:23;;;;;;;29.10;5.15;;;;;;;-145.49;100.00;62790.56;5007745;28;20033;-78
2022/10/12 06:35:49;;;;;;;7.32;4.03;;;;;;;-145.49;100.00;62790.56;4999508;28;20034;-78
2022/10/12 06:38:16;;;;;;;7.50;3.08;;;;;;;-145.49;100.00;62790.56;5001864;28;20048;-77
2022/10/12 06:40:46;;;;;;;8.82;4.82;;;;;;;-145.49;100.00;62790.56;5022425;28;20049;-77
2022/10/12 06:43:15;;;;;;;9.63;4.32;;;;;;;-145.49;100.00;62790.56;4994248;28;20053;-78
2022/10/12 06:45:46;;;;;;;8.68;4.55;;;;;;;-145.49;100.00;62790.56;4995864;28;20034;-78
2022/10/12 06:48:12;;;;;;;10.63;3.35;;;;;;;-145.49;100.00;62790.56;4992420;28;20038;-77
2022/10/12 06:50:40;;;;;;;6.43;3.90;;;;;;;-145.49;100.00;62790.56;4995589;28;20374;-78
2022/10/12 06:53:09;;;;;;;6.15;4.38;;;;;;;-145.49;100.00;62790.56;4990214;28;20038;-78
2022/10/12 06:55:45;;;;;;;4.80;4.35;;;;;;;-145.49;100.00;62790.56;4990402;28;20130;-77
2022/10/12 06:58:16;;;;;;;4.05;3.65;;;;;;;-145.49;100.00;62790.56;4993279;28;20030;-77
2022/10/12 07:00:47;;;;;;;11.30;4.60;;;;;;;-145.49;100.00;62790.56;4988814;28;20030;-77
2022/10/12 07:03:16;;;;;;;7.53;4.03;;;;;;;-145.49;100.00;62790.56;4986561;28;20046;-78
2022/10/12 07:05:49;;;;;;;4.82;4.20;;;;;;;-145.49;100.00;62790.56;4982511;28;20038;-77
2022/10/12 07:08:20;;;;;;;4.53;3.95;;;;;;;-145.49;100.00;62790.56;4973485;28;20053;-77
2022/10/12 07:10:46;;;;;;;8.05;4.47;;;;;;;-145.49;100.00;62790.56;4999746;28;20511;-77
2022/10/12 07:13:15;;;;;;;9.00;4.28;;;;;;;-145.49;100.00;62790.56;4981367;28;20527;-77
2022/10/12 07:15:48;;;;;;;8.82;5.43;;;;;;;-145.49;100.00;62790.56;4993174;28;20045;-77
2022/10/12 07:18:15;;;;;;;5.68;4.43;;;;;;;-145.49;100.00;62790.56;4976671;28;20045;-77
2022/10/12 07:20:46;;;;;;;7.53;4.30;;;;;;;-145.49;100.00;62790.56;4989971;28;21284;-77
2022/10/12 07:23:15;;;;;;;7.75;4.95;;;;;;;-145.49;100.00;62790.56;4991153;28;20503;-77
2022/10/12 07:25:48;;;;;;;6.65;4.40;;;;;;;-145.49;100.00;62790.56;4991445;28;20037;-77
2022/10/12 07:28:16;;;;;;;7.63;5.07;;;;;;;-145.49;100.00;62790.56;4993433;28;20238;-77
2022/10/12 07:30:44;;;;;;;12.45;6.25;;;;;;;-145.49;100.00;62790.56;5000062;28;20050;-77
2022/10/12 07:33:13;;;;;;;9.85;4.82;;;;;;;-145.49;100.00;62790.56;5003638;28;20045;-77
2022/10/12 07:35:42;;;;;;;6.30;5.25;;;;;;;-145.49;100.00;62790.56;4988873;28;20030;-77
2022/10/12 07:38:15;;;;;;;10.23;5.63;;;;;;;-145.49;100.00;62790.56;4999776;28;20049;-77
2022/10/12 07:40:48;;;;;;;5.75;4.72;;;;;;;-145.49;100.00;62790.56;4979864;28;20511;-79
2022/10/12 07:43:14;;;;;;;7.43;5.25;;;;;;;-145.49;100.00;62790.56;4991309;28;21356;-80
2022/10/12 07:45:43;;;;;;;5.68;4.45;;;;;;;-145.49;100.00;62790.56;4989465;28;20034;-80
2022/10/12 07:48:09;;;;;;;7.63;4.70;;;;;;;-145.49;100.00;62790.56;4960310;28;20575;-80
2022/10/12 07:50:36;;;;;;;14.13;5.20;;;;;;;-145.49;100.00;62790.56;4989777;28;20030;-79
2022/10/12 07:53:02;;;;;;;7.28;4.05;;;;;;;-145.49;100.00;62790.56;4988148;28;20035;-79
2022/10/12 07:55:31;;;;;;;6.95;3.75;;;;;;;-145.49;100.00;62790.56;4990007;28;20049;-79
2022/10/12 07:58:02;;;;;;;7.00;4.45;;;;;;;-145.49;100.00;62790.56;4992163;28;20034;-79
2022/10/12 08:00:31;;;;;;;8.25;4.95;;;;;;;-145.49;100.00;62790.56;4987705;28;20061;-80
2022/10/12 08:03:04;;;;;;;5.70;4.60;;;;;;;-145.49;100.00;62790.56;4992996;28;20030;-78
2022/10/12 08:05:33;;;;;;;11.15;5.28;;;;;;;-145.49;100.00;62790.56;4972840;28;20031;-80
2022/10/12 08:08:01;;;;;;;13.40;5.78;;;;;;;-145.49;100.00;62790.56;4972573;28;20042;-79
2022/10/12 08:10:27;;;;;;;8.13;5.10;;;;;;;-145.49;100.00;62790.56;4997018;28;20404;-80
2022/10/12 08:12:56;;;;;;;9.02;5.50;;;;;;;-145.49;100.00;62790.56;4969551;28;20399;-79
2022/10/12 08:15:24;;;;;;;8.40;5.55;;;;;;;-145.49;100.00;62790.56;5002703;28;20383;-79
2022/10/12 08:17:53;;;;;;;12.15;5.93;;;;;;;-145.49;100.00;62790.56;4996595;28;20034;-79
2022/10/12 08:20:21;;;;;;;10.50;5.93;;;;;;;-145.49;100.00;62790.56;4996274;28;20038;-79
2022/10/12 08:22:49;;;;;;;8.40;5.70;;;;;;;-145.49;100.00;62790.56;4987870;28;20038;-79
2022/10/12 08:25:18;;;;;;;12.30;7.03;;;;;;;-145.49;100.00;62790.56;4987154;28;20405;-79
2022/10/12 08:27:49;;;;;;;10.00;6.15;;;;;;;-145.49;100.00;62790.56;4995487;28;20041;-79
2022/10/12 08:30:21;;;;;;;16.35;6.20;;;;;;;-145.49;100.00;62790.56;4998021;28;20046;-80
2022/10/12 08:32:47;;;;;;;7.03;6.25;;;;;;;-145.49;100.00;62790.56;4969386;28;20030;-79
2022/10/12 08:35:13;;;;;;;10.55;5.93;;;;;;;-145.49;100.00;62790.56;4985085;28;20033;-79
2022/10/12 08:37:39;;;;;;;12.15;6.60;;;;;;;-145.49;100.00;62790.56;4988184;28;20037;-76
2022/10/12 08:40:17;;;;;;;7.97;5.00;;;;;;;-145.49;100.00;62790.56;4988372;28;20499;-76
2022/10/12 08:43:03;;;;;;;7.25;6.10;;;;;;;-145.49;100.00;62790.56;5002360;28;20042;-78
2022/10/12 08:45:54;;;;;;;14.45;8.52;;;;;;;-145.49;100.00;62790.56;5002813;28;20046;-78
2022/10/12 08:48:25;;;;;;;10.02;5.68;;;;;;;-145.49;100.00;62790.56;4976281;28;20515;-79
2022/10/12 08:51:00;;;;;;;16.02;6.60;;;;;;;-145.49;100.00;62790.56;4988320;28;20037;-79
2022/10/12 08:53:34;;;;;;;10.68;7.28;;;;;;;-145.49;100.00;62790.56;4987689;28;20400;-79
2022/10/12 08:56:00;;;;;;;14.02;7.55;;;;;;;-145.49;100.00;62790.56;4988463;28;20053;-79
2022/10/12 08:58:28;;;;;;;10.48;7.80;;;;;;;-145.49;100.00;62790.56;4991663;28;20030;-78
2022/10/12 09:01:01;;;;;;;11.13;8.82;;;;;;;-145.49;100.00;62790.56;4971218;28;20038;-79
2022/10/12 09:03:48;;;;;;;9.63;8.73;;;;;;;-145.49;100.00;62790.56;5007243;28;20041;-79
2022/10/12 09:06:19;;;;;;;14.57;8.80;;;;;;;-145.49;100.00;62790.56;4972116;28;20404;-79
2022/10/12 09:09:06;;;;;;;10.88;8.23;;;;;;;-145.49;100.00;62790.56;4968562;28;20678;-78
2022/10/12 09:11:44;;;;;;;11.20;8.18;;;;;;;-145.49;100.00;62790.56;4985330;28;20038;-79
2022/10/12 09:14:25;;;;;;;18.05;8.10;;;;;;;-145.49;100.00;62790.56;4970442;28;20057;-79
2022/10/12 09:16:55;;;;;;;12.32;7.53;;;;;;;-145.49;100.00;62790.56;4994115;28;20041;-79
2022/10/12 09:19:34;;;;;;;15.82;8.73;;;;;;;-145.49;100.00;62790.56;4989295;28;20049;-79
2022/10/12 09:22:02;;;;;;;12.40;8.25;;;;;;;-145.49;100.00;62790.56;4986782;28;20068;-79
2022/10/12 09:24:38;;;;;;;13.10;8.60;;;;;;;-145.49;100.00;62790.56;4986798;28;20037;-77
2022/10/12 09:27:16;;;;;;;15.32;10.25;;;;;;;-145.49;100.00;62790.56;4989027;28;20035;-77
2022/10/12 09:29:49;;;;;;;13.85;9.20;;;;;;;-145.49;100.00;62790.56;4989040;28;20049;-77
2022/10/12 09:32:41;;;;;;;22.10;9.55;;;;;;;-145.49;100.00;62790.56;4991406;28;20057;-77
2022/10/12 09:35:13;;;;;;;15.88;10.82;;;;;;;-145.49;100.00;62790.56;4990919;28;20045;-77
2022/10/12 09:37:47;;;;;;;14.93;8.43;;;;;;;-145.49;100.00;62790.56;4981991;28;20039;-77
2022/10/12 09:40:24;;;;;;;13.03;7.23;;;;;;;-145.49;100.00;62790.56;4986020;28;20046;-77
2022/10/12 09:42:54;;;;;;;13.60;9.10;;;;;;;-145.49;100.00;62790.56;4986483;28;20045;-77
2022/10/12 09:45:21;;;;;;;11.73;8.43;;;;;;;-145.49;100.00;62790.56;4992027;28;20587;-77
2022/10/12 09:48:18;;;;;;;11.20;8.18;;;;;;;-145.49;100.00;62790.56;4988503;28;20057;-78
2022/10/12 09:50:59;;;;;;;13.45;8.15;;;;;;;-145.49;100.00;62790.56;4971063;28;20044;-77
2022/10/12 09:53:29;;;;;;;16.55;10.65;;;;;;;-145.49;100.00;62790.56;4989534;28;20037;-78
2022/10/12 09:56:20;;;;;;;10.45;9.07;;;;;;;-145.49;100.00;62790.56;4993952;28;20527;-78
2022/10/12 09:58:54;;;;;;;13.77;8.65;;;;;;;-145.49;100.00;62790.56;4971823;28;20047;-77
2022/10/12 10:01:31;;;;;;;11.40;9.55;;;;;;;-145.49;100.00;62790.56;4988570;28;20031;-77
2022/10/12 10:04:12;;;;;;;12.50;8.50;;;;;;;-145.49;100.00;62790.56;4987794;28;20412;-78
2022/10/12 10:06:42;;;;;;;13.55;8.43;;;;;;;-145.49;100.00;62790.56;4991867;28;20054;-78
2022/10/12 10:09:27;;;;;;;16.33;9.77;;;;;;;-145.49;100.00;62790.56;4984153;28;20407;-77
2022/10/12 10:12:09;;;;;;;16.00;8.77;;;;;;;-145.49;100.00;62790.56;4989329;28;20401;-77
2022/10/12 10:14:46;;;;;;;18.10;11.82;;;;;;;-145.49;100.00;62790.56;4989852;28;20034;-77
2022/10/12 10:17:24;;;;;;;12.95;9.95;;;;;;;-145.49;100.00;62790.56;4988966;28;20041;-77
2022/10/12 10:19:57;;;;;;;13.50;8.60;;;;;;;-145.49;100.00;62790.56;4992486;28;20385;-77
2022/10/12 10:22:24;;;;;;;13.68;9.13;;;;;;;-145.49;100.00;62790.56;4991117;28;20069;-77
2022/10/12 10:24:57;;;;;;;12.93;9.48;;;;;;;-145.49;100.00;62790.56;4993129;28;20026;-76
2022/10/12 10:27:35;;;;;;;14.88;10.15;;;;;;;-145.49;100.00;62790.56;4972725;28;20034;-76
2022/10/12 10:30:16;;;;;;;14.32;9.30;;;;;;;-145.49;100.00;62790.56;5002959;28;20432;-77
2022/10/12 10:32:44;;;;;;;13.75;10.50;;;;;;;-145.49;100.00;62790.56;4989022;28;20369;-77
2022/10/12 10:35:12;;;;;;;14.82;10.20;;;;;;;-145.49;100.00;62790.56;4991889;28;20397;-77
2022/10/12 10:38:14;;;;;;;13.77;9.60;;;;;;;-145.49;100.00;62790.56;4993606;28;20034;-77
2022/10/12 10:40:40;;;;;;;20.83;9.30;;;;;;;-145.49;100.00;62790.56;5006516;28;20476;-77
2022/10/12 10:43:20;;;;;;;24.00;10.13;;;;;;;-145.49;100.00;62790.56;4993043;28;20046;-77
2022/10/12 10:45:51;;;;;;;12.57;8.98;;;;;;;-145.49;100.00;62790.56;4983835;28;20030;-77
2022/10/12 10:48:26;;;;;;;13.07;9.65;;;;;;;-145.49;100.00;62790.56;4971014;28;20084;-77
2022/10/12 10:50:59;;;;;;;12.25;8.48;;;;;;;-145.49;100.00;62790.56;4980010;28;20042;-77
2022/10/12 10:53:32;;;;;;;14.98;8.75;;;;;;;-145.49;100.00;62790.56;4987639;28;20516;-77
2022/10/12 10:56:10;;;;;;;18.55;9.60;;;;;;;-145.49;100.00;62790.56;4985891;28;20042;-77
2022/10/12 10:58:44;;;;;;;11.45;8.57;;;;;;;-145.49;100.00;62790.56;4991883;28;20034;-77
2022/10/12 11:01:31;;;;;;;11.82;9.00;;;;;;;-145.49;100.00;62790.56;4990492;28;20419;-77
2022/10/12 11:04:32;;;;;;;14.27;8.85;;;;;;;-145.49;100.00;62790.56;4996652;28;20053;-77
2022/10/12 11:07:15;;;;;;;19.40;9.10;;;;;;;-145.49;100.00;62790.56;4991665;28;20034;-77
2022/10/12 11:09:49;;;;;;;15.00;10.52;;;;;;;-145.49;100.00;62790.56;4979360;28;20042;-77
2022/10/12 11:12:29;;;;;;;17.77;9.30;;;;;;;-145.49;100.00;62790.56;4993563;28;20488;-77
2022/10/12 11:15:07;;;;;;;11.98;8.02;;;;;;;-145.49;100.00;62790.56;4989458;28;20046;-79
2022/10/12 11:17:47;;;;;;;10.15;8.65;;;;;;;-145.49;100.00;62790.56;4987113;28;20050;-79
2022/10/12 11:20:19;;;;;;;12.75;9.65;;;;;;;-145.49;100.00;62790.56;4985570;28;20049;-80
2022/10/12 11:22:55;;;;;;;13.35;8.77;;;;;;;-145.49;100.00;62790.56;4983714;28;20052;-81
2022/10/12 11:25:41;;;;;;;18.13;10.50;;;;;;;-145.49;100.00;62790.56;4987033;28;20038;-81
2022/10/12 11:28:14;;;;;;;9.48;8.18;;;;;;;-145.49;100.00;62790.56;4976958;28;20049;-82
2022/10/12 11:30:54;;;;;;;15.33;9.03;;;;;;;-145.49;100.00;62790.56;4987740;28;20391;-81